Centerville, UT

4:38 AM MDT on August 29, 2015 (GMT -0600)
Centerville Main Street | | Change Station
CLOSE
Current Station
Personal Weather Station
Location: Centerville, UT
Elevation: 4304 ft
Nearby Weather Stations

Elev 4304 ft 40.91 °N, 111.88 °W | Updated 22 seconds ago

Clear
Clear
66.1 °F
Feels Like 66.1 °F
N
0.9
Wind Variable Wind from SSW
Gusts 4.3 mph

Today
High -- | Low -- °F
--% Chance of Precip.
Yesterday
High -- | Low -- °F
Precip. -- in
6:51 AM 8:05 PM
Full, 100% visible
Pressure 29.85 in
Visibility 10.0 miles
Clouds Few 15000 ft
Scattered Clouds 22000 ft
Dew Point 42 °F
Humidity 41%
Rainfall 0.00 in
Snow Depth Not available.
UV 0 out of 12
Pollen 8.70 out of 12
Air Quality Not available.
Flu Activity Not available.
METAR KSLC 290953Z 17010KT 10SM FEW150 SCT220 24/06 A3004 RMK AO2 SLP106 T02390061
Pressure 29.85 in
Visibility 10.0 miles
Clouds Few 15000 ft
Scattered Clouds 22000 ft
Dew Point 42 °F
Humidity 41%
Rainfall 0.00 in
Snow Depth Not available.
UV 0 out of 12
Pollen 8.70 out of 12
Air Quality Not available.
Flu Activity Not available.
METAR KSLC 290953Z 17010KT 10SM FEW150 SCT220 24/06 A3004 RMK AO2 SLP106 T02390061

10-Day Weather Forecast

×

Almanac

Astronomy

Aug. 29, 2015 Rise Set
Actual Time
Civil Twilight
Nautical Twilight
Astronomical Twilight
Moon
Length of Visible Light
Length of Day
Tomorrow will be .
, % of the Moon is Illuminated

Today's Extremes

State Highs State Lows

Community

WunderPhotos

Upload Photos

1,850,633 photos uploaded!

WunderBlogs® & News

Nearby

Air Quality

  Air Quality AQ Index Pollutant
Not available.

Snow Depth

Station Depth Elevation

Earthquake Activity

City Distance Mag. Time & Date
Minimum magnitude displayed is 2.5.

Coastal Water Temperatures

Place Temperature

Stations

Nearby Weather Stations

Station Location Temp. Windchill Dew Point Humidity Wind Precip. Elev Updated Type